Time,TemperatureF,DewpointF,PressureIn,WindDirection,WindDirectionDegrees,WindSpeedMPH,WindSpeedGustMPH,Humidity,HourlyPrecipIn,Conditions,Clouds,dailyrainin,SolarRadiationWatts/m^2,SoftwareType,DateUTC
2013-09-28 00:00:00,53.1,52.6,29.86,East,99,4.0,4.0,98,0.00,,,0.00,0,Wunderground v.1.15,2013-09-27 23:00:00,
2013-09-28 00:29:00,53.4,52.8,29.85,East,96,5.0,5.0,98,0.00,,,0.00,0,Wunderground v.1.15,2013-09-27 23:29:00,
2013-09-28 01:00:00,53.5,52.9,29.84,East,92,4.0,4.0,98,0.00,,,0.00,0,Wunderground v.1.15,2013-09-28 00:00:00,
2013-09-28 01:29:00,53.9,53.3,29.85,East,98,5.0,5.0,98,0.00,,,0.00,0,Wunderground v.1.15,2013-09-28 00:29:00,
2013-09-28 02:00:00,53.7,53.1,29.84,ESE,104,3.0,3.0,98,0.00,,,0.00,0,Wunderground v.1.15,2013-09-28 01:00:00,
2013-09-28 02:29:00,53.7,53.1,29.83,ESE,103,4.0,6.0,98,0.00,,,0.00,0,Wunderground v.1.15,2013-09-28 01:29:00,
2013-09-28 03:00:00,54.4,53.8,29.83,ESE,103,4.0,4.0,98,0.00,,,0.00,0,Wunderground v.1.15,2013-09-28 02:00:00,
2013-09-28 03:29:00,54.9,54.3,29.82,East,97,5.0,5.0,98,0.00,,,0.00,0,Wunderground v.1.15,2013-09-28 02:29:00,
2013-09-28 04:00:00,55.0,54.4,29.81,East,101,5.0,5.0,98,0.00,,,0.00,0,Wunderground v.1.15,2013-09-28 03:00:00,
2013-09-28 04:29:00,54.7,54.1,29.81,East,101,3.0,4.0,98,0.00,,,0.00,0,Wunderground v.1.15,2013-09-28 03:29:00,
2013-09-28 05:00:00,54.2,53.6,29.81,East,96,4.0,5.0,98,0.00,,,0.00,0,Wunderground v.1.15,2013-09-28 04:00:00,
2013-09-28 05:29:00,54.0,53.4,29.80,East,95,4.0,5.0,98,0.00,,,0.00,0,Wunderground v.1.15,2013-09-28 04:29:00,
2013-09-28 06:00:00,53.9,53.3,29.80,East,87,4.0,4.0,98,0.00,,,0.00,0,Wunderground v.1.15,2013-09-28 05:00:00,
2013-09-28 06:29:00,53.3,52.8,29.79,East,80,3.0,5.0,98,0.00,,,0.00,0,Wunderground v.1.15,2013-09-28 05:29:00,
2013-09-28 07:00:00,53.3,52.8,29.79,ENE,73,4.0,6.0,98,0.00,,,0.00,0,Wunderground v.1.15,2013-09-28 06:00:00,
2013-09-28 07:29:00,53.2,52.7,29.79,ENE,67,5.0,5.0,98,0.00,,,0.00,5,Wunderground v.1.15,2013-09-28 06:29:00,
2013-09-28 08:00:00,53.8,53.2,29.78,East,96,7.0,7.0,98,0.00,,,0.01,33,Wunderground v.1.15,2013-09-28 07:00:00,
2013-09-28 08:29:00,54.1,53.5,29.79,ENE,65,8.0,12.0,98,0.00,,,0.01,56,Wunderground v.1.15,2013-09-28 07:29:00,
2013-09-28 09:00:00,54.4,53.8,29.79,East,90,7.0,13.0,98,0.00,,,0.01,81,Wunderground v.1.15,2013-09-28 08:00:00,
2013-09-28 09:29:00,54.5,53.7,29.79,East,82,10.0,10.0,97,0.00,,,0.01,79,Wunderground v.1.15,2013-09-28 08:29:00,
2013-09-28 10:00:00,54.9,53.8,29.80,ENE,71,9.0,9.0,96,0.00,,,0.01,93,Wunderground v.1.15,2013-09-28 09:00:00,
2013-09-28 10:29:00,55.0,53.6,29.81,ESE,121,11.0,13.0,95,0.00,,,0.01,77,Wunderground v.1.15,2013-09-28 09:29:00,
2013-09-28 11:00:00,55.3,53.6,29.81,ESE,118,9.0,13.0,94,0.00,,,0.01,137,Wunderground v.1.15,2013-09-28 10:00:00,
2013-09-28 11:29:00,56.0,54.0,29.80,East,88,9.0,11.0,93,0.00,,,0.01,176,Wunderground v.1.15,2013-09-28 10:29:00,
2013-09-28 12:00:00,57.4,54.5,29.80,East,99,8.0,11.0,90,0.00,,,0.01,181,Wunderground v.1.15,2013-09-28 11:00:00,
2013-09-28 12:29:00,57.2,54.3,29.79,East,90,9.0,9.0,90,0.00,,,0.01,204,Wunderground v.1.15,2013-09-28 11:29:00,
2013-09-28 13:00:00,56.5,53.9,29.78,ENE,77,8.0,8.0,91,0.00,,,0.01,190,Wunderground v.1.15,2013-09-28 12:00:00,
2013-09-28 13:29:00,57.8,55.2,29.77,ENE,73,9.0,9.0,91,0.00,,,0.01,304,Wunderground v.1.15,2013-09-28 12:29:00,
2013-09-28 14:00:00,57.3,54.4,29.76,East,94,10.0,10.0,90,0.00,,,0.01,123,Wunderground v.1.15,2013-09-28 13:00:00,
2013-09-28 14:29:00,57.0,54.4,29.76,East,92,8.0,8.0,91,0.00,,,0.01,199,Wunderground v.1.15,2013-09-28 13:29:00,
2013-09-28 15:00:00,57.6,54.7,29.75,NE,53,9.0,9.0,90,0.00,,,0.01,207,Wunderground v.1.15,2013-09-28 14:00:00,
2013-09-28 15:29:00,59.7,55.5,29.75,ENE,67,8.0,8.0,86,0.00,,,0.01,160,Wunderground v.1.15,2013-09-28 14:29:00,
2013-09-28 16:00:00,58.1,54.9,29.75,East,90,10.0,13.0,89,0.00,,,0.01,230,Wunderground v.1.15,2013-09-28 15:00:00,
2013-09-28 16:29:00,57.9,54.7,29.75,East,96,7.0,7.0,89,0.00,,,0.01,113,Wunderground v.1.15,2013-09-28 15:29:00,
2013-09-28 17:00:00,57.2,54.3,29.75,East,99,7.0,9.0,90,0.00,,,0.01,62,Wunderground v.1.15,2013-09-28 16:00:00,
2013-09-28 17:29:00,56.9,54.3,29.75,ESE,109,7.0,9.0,91,0.00,,,0.01,62,Wunderground v.1.15,2013-09-28 16:29:00,
2013-09-28 18:00:00,56.4,53.8,29.75,East,96,8.0,8.0,91,0.00,,,0.01,35,Wunderground v.1.15,2013-09-28 17:00:00,
2013-09-28 18:29:00,56.0,53.7,29.76,East,92,7.0,7.0,92,0.00,,,0.01,9,Wunderground v.1.15,2013-09-28 17:29:00,
2013-09-28 19:00:00,55.5,53.5,29.75,ESE,102,7.0,8.0,93,0.00,,,0.01,0,Wunderground v.1.15,2013-09-28 18:00:00,
2013-09-28 19:29:00,54.9,53.2,29.75,East,96,6.0,6.0,94,0.00,,,0.01,0,Wunderground v.1.15,2013-09-28 18:29:00,
2013-09-28 20:29:00,54.7,53.0,29.75,East,86,5.0,6.0,94,0.00,,,0.01,0,Wunderground v.1.15,2013-09-28 19:29:00,
2013-09-28 21:00:00,55.1,53.4,29.75,ENE,76,4.0,4.0,94,0.00,,,0.01,0,Wunderground v.1.15,2013-09-28 20:00:00,
2013-09-28 21:29:00,55.5,53.8,29.76,East,85,4.0,4.0,94,0.00,,,0.01,0,Wunderground v.1.15,2013-09-28 20:29:00,
2013-09-28 22:00:00,55.5,54.1,29.77,East,97,4.0,6.0,95,0.00,,,0.01,0,Wunderground v.1.15,2013-09-28 21:00:00,
2013-09-28 22:29:00,55.4,54.0,29.76,East,97,3.0,3.0,95,0.00,,,0.01,0,Wunderground v.1.15,2013-09-28 21:29:00,
2013-09-28 23:00:00,55.5,54.1,29.76,East,96,3.0,5.0,95,0.00,,,0.01,0,Wunderground v.1.15,2013-09-28 22:00:00,
2013-09-28 23:29:00,55.6,54.2,29.76,East,96,4.0,6.0,95,0.00,,,0.01,0,Wunderground v.1.15,2013-09-28 22:29:00,